Time;durP1;ratioP1;P1;durP2;ratioP2;P2;SDS_P1;SDS_P2;PMS_P1;PMS_P2;Temp;Humidity;BMP_temperature;BMP_pressure;BME280_temperature;BME280_humidity;BME280_pressure;Samples;Min_cycle;Max_cycle;Signal;HPM_P1;HPM_P2
2023/01/04 02:14:33;;;;;;;27.37;24.90;;;3.20;99.90;;;;;;6209579;23;20562;-75
2023/01/04 02:17:10;;;;;;;26.87;24.93;;;3.20;99.90;;;;;;6210003;23;20412;-75
2023/01/04 02:20:01;;;;;;;29.10;26.80;;;3.20;99.90;;;;;;6209593;23;20403;-74
2023/01/04 02:23:00;;;;;;;27.67;24.93;;;3.20;99.90;;;;;;6209863;23;20451;-74
2023/01/04 02:26:03;;;;;;;26.97;24.97;;;3.30;99.90;;;;;;6203494;23;20426;-74
2023/01/04 02:28:53;;;;;;;26.67;24.50;;;3.30;99.90;;;;;;6192136;23;20426;-75
2023/01/04 02:31:31;;;;;;;26.83;24.50;;;3.30;99.90;;;;;;6209728;23;20825;-76
2023/01/04 02:34:08;;;;;;;28.53;26.53;;;3.30;99.90;;;;;;6210150;23;20479;-74
2023/01/04 02:36:40;;;;;;;26.27;24.07;;;3.20;99.90;;;;;;6209502;23;20859;-74
2023/01/04 02:39:18;;;;;;;26.10;23.90;;;3.20;99.90;;;;;;6209775;23;20385;-75
2023/01/04 02:41:51;;;;;;;25.30;23.30;;;3.20;99.90;;;;;;6209995;23;20880;-75
2023/01/04 02:47:14;;;;;;;25.07;23.23;;;3.20;99.90;;;;;;6209331;23;20375;-75
2023/01/04 02:52:25;;;;;;;27.63;25.30;;;3.20;99.90;;;;;;6209418;23;20376;-75
2023/01/04 02:54:55;;;;;;;28.73;26.33;;;3.20;99.90;;;;;;6209844;23;20426;-75
2023/01/04 02:57:32;;;;;;;30.27;27.90;;;3.10;99.90;;;;;;6209623;23;20411;-75
2023/01/04 03:00:19;;;;;;;31.17;28.50;;;3.10;99.90;;;;;;6209433;23;20391;-75
2023/01/04 03:08:48;;;;;;;27.70;25.30;;;3.10;99.90;;;;;;6211356;23;20378;-74
2023/01/04 03:14:09;;;;;;;35.13;31.50;;;3.10;99.90;;;;;;6210890;23;20434;-76
2023/01/04 03:16:38;;;;;;;31.53;28.73;;;3.10;99.90;;;;;;6210771;23;20445;-76
2023/01/04 03:19:08;;;;;;;28.63;26.30;;;3.10;99.90;;;;;;6210720;23;20418;-75
2023/01/04 03:21:37;;;;;;;31.30;28.40;;;3.10;99.90;;;;;;6211241;23;20772;-75
2023/01/04 03:35:37;;;;;;;27.87;25.13;;;3.40;99.90;;;;;;6211263;23;20414;-75
2023/01/04 03:49:29;;;;;;;23.83;22.20;;;3.20;99.90;;;;;;6147878;23;20422;-75
2023/01/04 03:52:00;;;;;;;27.00;24.77;;;3.20;99.90;;;;;;6172966;23;20708;-75
2023/01/04 03:54:30;;;;;;;27.00;24.70;;;3.10;99.90;;;;;;6210812;23;20409;-75
2023/01/04 03:56:58;;;;;;;30.60;27.70;;;3.10;99.90;;;;;;6211056;23;20397;-76
2023/01/04 03:59:25;;;;;;;30.83;27.70;;;3.10;99.90;;;;;;6210638;23;20471;-76
2023/01/04 04:01:53;;;;;;;27.93;25.37;;;3.10;99.90;;;;;;6210689;23;20726;-75
2023/01/04 04:09:49;;;;;;;25.10;22.67;;;3.30;99.90;;;;;;6210569;23;20396;-74
2023/01/04 04:12:16;;;;;;;25.00;23.13;;;3.40;99.90;;;;;;6211018;23;20433;-74
2023/01/04 04:14:43;;;;;;;25.83;23.73;;;3.50;99.90;;;;;;6210092;23;20440;-75
2023/01/04 04:17:09;;;;;;;25.23;23.20;;;3.60;99.90;;;;;;6210677;23;20409;-75
2023/01/04 04:19:36;;;;;;;23.30;21.50;;;3.60;99.90;;;;;;6211105;23;20464;-75
2023/01/04 04:22:04;;;;;;;26.07;24.10;;;3.50;99.90;;;;;;6211405;23;20417;-75
2023/01/04 04:24:31;;;;;;;24.33;22.60;;;3.40;99.90;;;;;;6210849;23;20479;-76
2023/01/04 04:26:58;;;;;;;25.83;23.83;;;3.40;99.90;;;;;;6210945;23;20411;-74
2023/01/04 04:29:24;;;;;;;26.47;24.37;;;3.40;99.90;;;;;;6209985;23;20444;-74
2023/01/04 04:31:51;;;;;;;25.27;23.47;;;3.40;99.90;;;;;;6210480;23;20416;-74
2023/01/04 04:34:18;;;;;;;26.27;24.10;;;3.40;99.90;;;;;;6210739;23;20409;-75
2023/01/04 04:36:45;;;;;;;27.27;25.13;;;3.50;99.90;;;;;;6210913;23;20424;-74
2023/01/04 04:39:13;;;;;;;24.37;22.17;;;3.50;99.90;;;;;;6210422;23;21015;-75
2023/01/04 04:41:40;;;;;;;24.57;22.47;;;3.50;99.90;;;;;;6210462;23;20381;-74
2023/01/04 04:44:08;;;;;;;28.83;26.43;;;3.50;99.90;;;;;;6210506;23;20532;-75
2023/01/04 04:46:35;;;;;;;26.30;24.27;;;3.60;99.90;;;;;;6210662;23;20415;-74
2023/01/04 04:49:02;;;;;;;23.80;22.00;;;3.60;99.90;;;;;;6210858;23;21116;-75
2023/01/04 04:51:29;;;;;;;24.47;22.30;;;3.70;99.90;;;;;;6210648;23;20412;-74
2023/01/04 04:53:55;;;;;;;25.40;23.10;;;3.80;99.90;;;;;;6209856;23;20404;-74
2023/01/04 04:56:23;;;;;;;25.13;23.13;;;3.80;99.90;;;;;;6210404;23;20787;-74
2023/01/04 04:58:50;;;;;;;26.13;23.90;;;3.80;99.90;;;;;;6210371;23;20409;-75
2023/01/04 05:01:17;;;;;;;24.73;22.90;;;3.90;99.90;;;;;;6210337;23;20425;-75
2023/01/04 05:03:44;;;;;;;24.87;23.07;;;3.90;99.90;;;;;;6210404;23;20448;-75
2023/01/04 05:06:11;;;;;;;23.10;21.30;;;3.90;99.90;;;;;;6209798;23;20911;-75
2023/01/04 05:08:37;;;;;;;22.40;20.70;;;4.00;99.90;;;;;;6210231;23;20769;-74
2023/01/04 05:11:06;;;;;;;18.80;17.70;;;4.10;99.90;;;;;;6210892;23;20486;-74
2023/01/04 05:13:34;;;;;;;17.53;16.50;;;4.20;99.90;;;;;;6211264;23;20484;-74
2023/01/04 05:16:01;;;;;;;19.60;18.30;;;4.30;99.90;;;;;;6211707;23;20452;-75
2023/01/04 05:18:28;;;;;;;20.63;19.23;;;4.40;99.90;;;;;;6211586;23;20782;-75
2023/01/04 05:20:55;;;;;;;22.33;20.87;;;4.50;99.90;;;;;;6213496;23;20412;-75
2023/01/04 05:23:22;;;;;;;22.17;20.37;;;4.50;99.90;;;;;;6220090;23;20444;-75
2023/01/04 05:25:52;;;;;;;21.97;20.43;;;4.50;99.90;;;;;;6229335;23;20458;-75
2023/01/04 05:28:19;;;;;;;23.00;21.50;;;4.50;99.90;;;;;;6233189;23;20419;-75
2023/01/04 05:30:52;;;;;;;21.57;19.93;;;4.50;99.90;;;;;;6227675;23;20416;-77
2023/01/04 05:33:20;;;;;;;20.73;19.30;;;4.60;99.90;;;;;;6228483;23;20475;-77
2023/01/04 05:35:51;;;;;;;21.50;19.90;;;4.60;99.90;;;;;;6214408;23;20413;-77
2023/01/04 05:38:19;;;;;;;24.27;22.60;;;4.70;99.90;;;;;;6211037;23;20413;-75
2023/01/04 05:40:46;;;;;;;24.17;22.47;;;4.70;99.90;;;;;;6210699;23;20896;-76
2023/01/04 05:43:13;;;;;;;20.70;19.10;;;4.70;99.90;;;;;;6210685;23;20764;-74
2023/01/04 05:45:40;;;;;;;19.67;18.33;;;4.70;99.90;;;;;;6210635;23;20938;-74
2023/01/04 05:48:08;;;;;;;19.20;17.87;;;4.70;99.90;;;;;;6210746;23;20526;-74
2023/01/04 05:50:35;;;;;;;19.77;18.60;;;4.80;99.90;;;;;;6210565;23;20413;-75
2023/01/04 05:53:02;;;;;;;19.67;18.50;;;4.70;99.90;;;;;;6211105;23;20412;-75
2023/01/04 05:55:28;;;;;;;19.40;18.30;;;4.70;99.90;;;;;;6210705;23;20401;-74
2023/01/04 05:57:55;;;;;;;20.63;19.17;;;4.80;99.90;;;;;;6210721;23;20710;-75
2023/01/04 06:00:22;;;;;;;20.10;18.50;;;4.80;99.90;;;;;;6210439;23;20474;-74
2023/01/04 06:02:51;;;;;;;20.00;18.80;;;5.00;99.90;;;;;;6210891;23;20413;-75
2023/01/04 06:05:19;;;;;;;18.53;17.53;;;5.00;99.90;;;;;;6210900;23;20818;-74
2023/01/04 06:07:46;;;;;;;17.17;16.27;;;5.10;99.90;;;;;;6210960;23;20408;-75
2023/01/04 06:10:13;;;;;;;18.00;17.00;;;5.10;99.90;;;;;;6210764;23;20409;-75
2023/01/04 06:12:40;;;;;;;17.63;16.53;;;5.20;99.90;;;;;;6210452;23;20435;-75
2023/01/04 06:15:09;;;;;;;18.70;17.60;;;5.20;99.90;;;;;;6210578;23;20966;-75
2023/01/04 06:17:36;;;;;;;17.73;16.73;;;5.30;99.90;;;;;;6210293;23;20419;-75
2023/01/04 06:20:03;;;;;;;16.90;15.87;;;5.30;99.90;;;;;;6210930;23;20478;-75
2023/01/04 06:22:33;;;;;;;15.87;15.07;;;5.50;99.90;;;;;;6211243;23;20405;-75
2023/01/04 06:24:59;;;;;;;16.60;15.70;;;5.50;99.90;;;;;;6210912;23;20437;-75
2023/01/04 06:27:26;;;;;;;16.50;15.70;;;5.80;99.90;;;;;;6210525;23;20405;-74
2023/01/04 06:29:53;;;;;;;21.20;20.00;;;6.00;99.90;;;;;;6210139;23;20927;-77
2023/01/04 06:32:20;;;;;;;17.90;16.80;;;6.10;99.90;;;;;;6210747;23;20427;-75
2023/01/04 06:34:47;;;;;;;22.43;20.37;;;6.00;99.90;;;;;;6210642;23;20482;-75
2023/01/04 06:37:14;;;;;;;23.30;21.57;;;5.80;99.90;;;;;;6210768;23;20416;-74
2023/01/04 06:39:42;;;;;;;22.17;20.50;;;5.70;99.90;;;;;;6210735;23;20946;-75
2023/01/04 06:42:43;;;;;;;21.73;20.23;;;5.60;99.90;;;;;;6211957;23;20493;-75
2023/01/04 06:44:56;;;;;;;22.97;20.97;;;5.50;99.90;;;;;;6212029;23;20443;-77
2023/01/04 06:47:23;;;;;;;22.37;20.57;;;5.50;99.90;;;;;;6212569;23;20530;-76
2023/01/04 06:49:50;;;;;;;20.03;18.70;;;5.50;99.90;;;;;;6212717;23;20470;-78
2023/01/04 06:52:16;;;;;;;21.80;20.30;;;5.50;99.90;;;;;;6212389;23;20981;-76
2023/01/04 06:54:44;;;;;;;22.70;20.77;;;5.50;99.90;;;;;;6212223;23;20502;-76
2023/01/04 06:57:12;;;;;;;23.03;20.97;;;5.40;99.90;;;;;;6211786;23;20459;-77
2023/01/04 06:59:39;;;;;;;22.50;20.90;;;5.50;99.90;;;;;;6210838;23;20416;-76
2023/01/04 07:02:05;;;;;;;22.97;21.20;;;5.50;99.90;;;;;;6212097;23;20475;-77
2023/01/04 07:04:32;;;;;;;20.73;19.03;;;5.70;99.90;;;;;;6212772;23;20441;-77
2023/01/04 07:06:59;;;;;;;20.60;19.10;;;5.70;99.90;;;;;;6212335;23;20404;-77
2023/01/04 07:09:25;;;;;;;23.00;21.27;;;5.70;99.90;;;;;;6211942;23;20439;-77
2023/01/04 07:11:53;;;;;;;24.70;22.90;;;5.60;99.90;;;;;;6211715;23;20494;-77
2023/01/04 07:14:20;;;;;;;24.43;22.30;;;5.40;99.90;;;;;;6212059;23;20440;-77
2023/01/04 07:16:47;;;;;;;25.37;23.33;;;5.40;99.90;;;;;;6212262;23;20415;-77
2023/01/04 07:19:13;;;;;;;23.97;22.10;;;5.30;99.90;;;;;;6212300;23;20900;-77
2023/01/04 07:21:41;;;;;;;26.87;24.63;;;5.30;99.90;;;;;;6212742;23;20420;-77
2023/01/04 07:24:07;;;;;;;25.57;23.60;;;5.20;99.90;;;;;;6211694;23;20483;-77
2023/01/04 07:26:35;;;;;;;24.13;21.93;;;5.10;99.90;;;;;;6212242;23;20435;-76
2023/01/04 07:29:15;;;;;;;23.67;21.80;;;5.10;99.90;;;;;;6212306;23;20462;-76
2023/01/04 07:31:43;;;;;;;24.23;22.40;;;5.00;99.90;;;;;;6212406;23;20404;-76
2023/01/04 07:34:10;;;;;;;24.90;23.17;;;5.00;99.90;;;;;;6211800;23;20532;-76
2023/01/04 07:36:36;;;;;;;26.30;24.10;;;5.00;99.90;;;;;;6211544;23;20888;-76
2023/01/04 07:39:04;;;;;;;29.67;27.43;;;5.10;99.90;;;;;;6212084;23;20955;-74
2023/01/04 07:41:30;;;;;;;31.20;28.90;;;5.10;99.90;;;;;;6212125;23;20416;-75
2023/01/04 07:43:57;;;;;;;32.40;30.33;;;5.10;99.90;;;;;;6211337;23;21001;-74
2023/01/04 07:46:26;;;;;;;40.63;37.87;;;5.10;99.90;;;;;;6211492;23;20408;-73
2023/01/04 07:48:53;;;;;;;42.93;39.57;;;5.20;99.90;;;;;;6211532;23;20489;-75
2023/01/04 07:51:20;;;;;;;38.40;35.70;;;5.20;99.90;;;;;;6211357;23;20467;-73
2023/01/04 07:53:46;;;;;;;40.70;37.87;;;5.10;99.90;;;;;;6212083;23;20420;-73
2023/01/04 07:56:13;;;;;;;42.70;39.90;;;5.10;99.90;;;;;;6211408;23;20413;-73
2023/01/04 07:58:40;;;;;;;40.30;37.70;;;5.10;99.90;;;;;;6211133;23;20654;-73
2023/01/04 08:01:07;;;;;;;42.43;39.50;;;5.20;99.90;;;;;;6211305;23;20452;-72
2023/01/04 08:03:35;;;;;;;42.90;39.90;;;5.30;99.90;;;;;;6211584;23;20413;-73
2023/01/04 08:06:03;;;;;;;45.10;41.73;;;5.40;99.90;;;;;;6211865;23;20769;-73
2023/01/04 08:08:30;;;;;;;42.07;39.07;;;5.40;99.90;;;;;;6211760;23;20786;-73
2023/01/04 08:11:01;;;;;;;40.63;37.83;;;5.50;99.90;;;;;;6211445;23;20405;-74
2023/01/04 08:13:27;;;;;;;37.00;34.30;;;5.50;99.90;;;;;;6210906;23;20410;-74
2023/01/04 08:15:55;;;;;;;38.23;35.70;;;5.70;99.90;;;;;;6223271;23;20469;-74
2023/01/04 08:18:21;;;;;;;41.07;38.33;;;5.90;99.90;;;;;;6228577;23;20416;-73
2023/01/04 08:20:50;;;;;;;40.30;38.03;;;6.00;99.90;;;;;;6221702;23;20409;-74
2023/01/04 08:23:17;;;;;;;39.33;36.30;;;6.10;99.90;;;;;;6222071;23;20408;-74
2023/01/04 08:25:43;;;;;;;40.87;37.90;;;6.20;99.90;;;;;;6229823;23;20463;-75
2023/01/04 08:28:10;;;;;;;40.73;37.50;;;6.00;99.90;;;;;;6216602;23;20400;-76
2023/01/04 08:30:37;;;;;;;41.37;38.27;;;6.00;99.90;;;;;;6211600;23;20463;-75
2023/01/04 08:33:12;;;;;;;41.00;38.40;;;5.90;99.90;;;;;;6211776;23;20779;-75
2023/01/04 08:35:38;;;;;;;40.47;37.53;;;6.00;99.90;;;;;;6211054;23;20392;-75
2023/01/04 08:38:06;;;;;;;39.40;36.50;;;6.00;99.90;;;;;;6211931;23;20411;-76
2023/01/04 08:40:33;;;;;;;41.97;39.27;;;6.00;99.90;;;;;;6211794;23;20443;-76
2023/01/04 08:43:00;;;;;;;39.90;37.50;;;6.10;99.90;;;;;;6213298;23;20417;-75
2023/01/04 08:45:26;;;;;;;37.60;35.40;;;6.20;99.90;;;;;;6211486;23;20511;-76
2023/01/04 08:47:53;;;;;;;38.30;36.00;;;6.30;99.90;;;;;;6212085;23;20409;-75
2023/01/04 08:50:20;;;;;;;37.27;34.93;;;6.40;99.90;;;;;;6211155;23;20405;-76
2023/01/04 08:52:47;;;;;;;42.57;39.70;;;6.50;99.90;;;;;;6211496;23;20415;-76
2023/01/04 08:55:15;;;;;;;39.77;37.47;;;6.50;99.90;;;;;;6211177;23;20409;-76
2023/01/04 08:57:42;;;;;;;35.00;33.10;;;6.50;99.90;;;;;;6210751;23;20438;-76
2023/01/04 09:00:10;;;;;;;37.00;34.90;;;6.50;99.90;;;;;;6211120;23;20463;-76
2023/01/04 09:02:37;;;;;;;37.97;35.60;;;6.40;99.90;;;;;;6208481;23;20923;-77
2023/01/04 09:05:04;;;;;;;37.00;34.37;;;6.40;99.90;;;;;;6204768;23;20471;-74
2023/01/04 09:07:31;;;;;;;34.63;32.70;;;6.40;99.90;;;;;;6210714;23;20773;-75
2023/01/04 09:09:59;;;;;;;35.93;33.87;;;6.40;99.90;;;;;;6210432;23;20473;-76
2023/01/04 09:12:27;;;;;;;35.60;33.47;;;6.50;99.90;;;;;;6210994;23;20780;-75
2023/01/04 09:14:54;;;;;;;34.40;32.50;;;6.50;99.90;;;;;;6210480;23;20433;-74
2023/01/04 09:17:21;;;;;;;33.90;31.97;;;6.70;99.90;;;;;;6210793;23;20409;-74
2023/01/04 09:19:48;;;;;;;36.17;34.03;;;6.80;99.90;;;;;;6211179;23;20739;-74
2023/01/04 09:22:15;;;;;;;30.93;29.33;;;6.90;99.90;;;;;;6211161;23;20409;-74
2023/01/04 09:24:41;;;;;;;28.10;26.63;;;7.00;99.90;;;;;;6210701;23;20944;-74
2023/01/04 09:27:08;;;;;;;25.33;24.23;;;7.20;99.90;;;;;;6210632;23;20934;-76
2023/01/04 09:29:36;;;;;;;24.40;23.20;;;7.40;99.90;;;;;;6211490;23;20455;-75
2023/01/04 09:32:03;;;;;;;22.03;21.13;;;7.50;99.90;;;;;;6211672;23;20412;-75
2023/01/04 09:34:30;;;;;;;21.03;19.83;;;7.70;99.90;;;;;;6211388;23;20927;-76
2023/01/04 09:36:56;;;;;;;19.20;18.37;;;7.70;99.90;;;;;;6210949;23;20409;-76
2023/01/04 09:39:25;;;;;;;17.20;16.60;;;7.90;99.90;;;;;;6210839;23;20439;-75
2023/01/04 09:41:56;;;;;;;16.50;15.40;;;8.20;99.90;;;;;;6210485;23;20416;-76
2023/01/04 09:44:31;;;;;;;15.73;14.73;;;8.40;99.90;;;;;;6210829;23;20393;-75
2023/01/04 09:47:03;;;;;;;14.67;13.87;;;8.60;99.90;;;;;;6210822;23;20400;-74
2023/01/04 09:49:37;;;;;;;14.03;13.30;;;8.60;99.90;;;;;;6211171;23;20394;-74
2023/01/04 09:52:11;;;;;;;12.30;11.80;;;8.70;99.90;;;;;;6210812;23;20879;-73
2023/01/04 09:54:47;;;;;;;13.83;13.20;;;8.70;99.90;;;;;;6210536;23;20658;-76
2023/01/04 09:57:22;;;;;;;12.83;12.00;;;8.80;99.90;;;;;;6210928;23;20480;-74
2023/01/04 09:59:51;;;;;;;12.77;12.17;;;8.80;99.90;;;;;;6211050;23;20396;-74
2023/01/04 10:02:25;;;;;;;13.10;12.50;;;8.80;99.90;;;;;;6211607;23;20409;-74
2023/01/04 10:04:52;;;;;;;15.03;14.27;;;8.80;99.90;;;;;;6210929;23;20767;-75
2023/01/04 10:07:26;;;;;;;13.20;12.60;;;8.80;99.90;;;;;;6211126;23;20471;-75
2023/01/04 10:09:53;;;;;;;12.83;12.23;;;8.90;99.90;;;;;;6211248;23;20634;-76
2023/01/04 10:12:33;;;;;;;11.70;11.20;;;8.90;99.90;;;;;;6210788;23;20435;-76
2023/01/04 10:15:17;;;;;;;11.20;10.80;;;9.00;99.90;;;;;;6212207;23;20444;-76
2023/01/04 10:18:00;;;;;;;12.37;11.63;;;9.00;99.90;;;;;;6214085;23;20400;-76
2023/01/04 10:21:00;;;;;;;11.03;10.63;;;9.10;99.90;;;;;;6213300;23;20397;-74
2023/01/04 10:23:40;;;;;;;11.97;11.40;;;9.30;99.90;;;;;;6212351;23;20904;-76
2023/01/04 10:26:12;;;;;;;11.17;10.53;;;9.30;99.90;;;;;;6212821;23;20432;-75
2023/01/04 10:28:52;;;;;;;10.93;10.50;;;9.50;99.90;;;;;;6212489;23;20460;-75
2023/01/04 10:31:25;;;;;;;11.90;11.30;;;9.50;99.90;;;;;;6212796;23;20760;-75
2023/01/04 10:34:02;;;;;;;12.73;12.13;;;9.60;99.90;;;;;;6212723;23;20877;-76
2023/01/04 10:36:31;;;;;;;10.67;10.13;;;9.60;99.90;;;;;;6213456;23;20388;-75
2023/01/04 10:39:01;;;;;;;11.47;10.93;;;9.70;99.90;;;;;;6212964;23;20416;-74
2023/01/04 10:41:31;;;;;;;11.03;10.10;;;9.70;99.90;;;;;;6212794;23;20466;-75
2023/01/04 10:44:08;;;;;;;10.40;10.00;;;9.80;99.90;;;;;;6216102;23;20389;-74
2023/01/04 10:46:43;;;;;;;11.77;11.10;;;9.80;99.90;;;;;;6212993;23;20435;-75
2023/01/04 10:49:16;;;;;;;10.20;9.90;;;9.80;99.90;;;;;;6212830;23;20423;-74
2023/01/04 10:51:46;;;;;;;11.07;10.67;;;9.90;99.90;;;;;;6213234;23;20401;-75
2023/01/04 10:54:19;;;;;;;9.67;9.37;;;10.00;99.90;;;;;;6213561;23;20393;-75
2023/01/04 10:56:52;;;;;;;10.50;10.00;;;10.10;99.90;;;;;;6213242;23;20738;-75
2023/01/04 10:59:23;;;;;;;10.83;10.43;;;10.20;99.90;;;;;;6212749;23;20483;-74
2023/01/04 11:01:53;;;;;;;10.30;10.00;;;10.30;99.90;;;;;;6212876;23;20389;-74
2023/01/04 11:04:26;;;;;;;10.50;10.03;;;10.20;99.90;;;;;;6212205;23;20856;-73
2023/01/04 11:06:59;;;;;;;10.00;9.70;;;10.30;99.90;;;;;;6211948;23;20938;-74
2023/01/04 11:09:32;;;;;;;10.63;10.23;;;10.40;99.90;;;;;;6212087;23;20412;-73
2023/01/04 11:12:02;;;;;;;10.80;10.30;;;10.50;99.90;;;;;;6212367;23;20495;-79
2023/01/04 11:14:29;;;;;;;10.17;9.77;;;10.50;99.90;;;;;;6217495;23;20459;-79
2023/01/04 11:16:59;;;;;;;12.20;11.80;;;10.70;99.90;;;;;;6216724;23;20437;-80
2023/01/04 11:19:28;;;;;;;10.37;10.00;;;10.60;99.90;;;;;;6215068;23;20869;-79
2023/01/04 11:21:59;;;;;;;10.50;10.10;;;10.60;99.90;;;;;;6214804;23;20417;-81
2023/01/04 11:24:30;;;;;;;11.40;10.90;;;10.70;99.90;;;;;;6213320;23;20397;-80
2023/01/04 11:26:58;;;;;;;10.00;9.63;;;10.70;99.90;;;;;;6216896;23;20429;-80
2023/01/04 11:29:32;;;;;;;9.93;9.63;;;10.60;99.90;;;;;;6213644;23;20413;-80
2023/01/04 11:32:02;;;;;;;10.00;9.60;;;10.60;99.90;;;;;;6215094;23;20767;-81
2023/01/04 11:34:48;;;;;;;10.23;9.83;;;10.70;99.90;;;;;;6216492;23;20409;-79
2023/01/04 11:37:28;;;;;;;10.00;9.70;;;10.70;99.90;;;;;;6209376;23;20392;-74
2023/01/04 11:40:20;;;;;;;10.13;9.73;;;10.70;99.90;;;;;;6210230;23;20763;-75
2023/01/04 11:42:49;;;;;;;11.10;10.60;;;10.90;99.90;;;;;;6202503;23;20413;-74
2023/01/04 11:45:24;;;;;;;11.50;11.00;;;10.80;99.90;;;;;;6219590;23;20523;-75
2023/01/04 11:47:53;;;;;;;10.57;10.20;;;10.90;99.90;;;;;;6210757;23;20413;-74
2023/01/04 11:50:38;;;;;;;9.50;9.20;;;10.90;99.90;;;;;;6210855;23;20413;-72
2023/01/04 11:53:30;;;;;;;10.93;10.53;;;10.90;99.90;;;;;;6209719;23;20416;-73
2023/01/04 11:56:24;;;;;;;10.80;10.30;;;10.90;99.90;;;;;;6208091;23;20400;-74
2023/01/04 11:59:10;;;;;;;10.60;10.00;;;10.90;99.90;;;;;;6174255;23;20421;-74
2023/01/04 12:01:39;;;;;;;10.50;10.10;;;10.90;99.90;;;;;;6210807;23;20705;-74
2023/01/04 12:04:12;;;;;;;10.50;10.10;;;10.90;99.90;;;;;;6211177;23;20475;-76
2023/01/04 12:06:45;;;;;;;10.90;10.40;;;10.90;99.90;;;;;;6214152;23;20451;-82
2023/01/04 12:09:14;;;;;;;10.70;9.90;;;11.00;99.90;;;;;;6214745;23;20439;-74
2023/01/04 12:11:43;;;;;;;10.30;10.00;;;11.00;99.90;;;;;;6210361;23;20928;-73
2023/01/04 12:14:19;;;;;;;11.47;11.07;;;11.00;99.90;;;;;;6210803;23;20441;-74
2023/01/04 12:16:51;;;;;;;11.00;10.50;;;11.00;99.90;;;;;;6211095;23;20403;-74
2023/01/04 12:19:19;;;;;;;10.90;10.60;;;11.00;99.90;;;;;;6211441;23;20432;-73
2023/01/04 12:21:49;;;;;;;11.20;10.80;;;11.00;99.90;;;;;;6211245;23;20729;-73
2023/01/04 20:10:35;;;;;;;10.73;10.33;;;12.50;99.90;;;;;;6156452;22;1908981;-77
2023/01/04 20:13:02;;;;;;;10.30;10.00;;;12.50;99.90;;;;;;6282583;22;20520;-75
2023/01/04 20:15:29;;;;;;;10.70;10.30;;;12.40;99.90;;;;;;6282523;22;20410;-77
2023/01/04 20:17:55;;;;;;;9.80;9.50;;;12.30;99.90;;;;;;6278736;22;20418;-76
2023/01/04 20:20:22;;;;;;;10.10;9.80;;;12.40;99.90;;;;;;6281567;22;20413;-77
2023/01/04 20:22:48;;;;;;;10.63;10.23;;;12.30;99.90;;;;;;6280943;22;20421;-76
2023/01/04 20:25:15;;;;;;;10.70;10.40;;;12.30;99.90;;;;;;6281702;22;20410;-75
2023/01/04 20:27:43;;;;;;;10.80;10.43;;;12.30;99.90;;;;;;6281754;22;20407;-76
2023/01/04 20:30:11;;;;;;;9.40;9.10;;;12.20;99.90;;;;;;6281302;22;20410;-75
2023/01/04 20:32:37;;;;;;;10.60;10.30;;;12.20;99.90;;;;;;6280749;22;20413;-75
2023/01/04 20:35:05;;;;;;;10.97;10.60;;;12.20;99.90;;;;;;6281225;22;20406;-75
2023/01/04 20:37:31;;;;;;;10.20;9.90;;;12.20;99.90;;;;;;6281213;22;20908;-75
2023/01/04 20:39:58;;;;;;;11.50;11.10;;;12.20;99.90;;;;;;6281007;22;20958;-76
2023/01/04 20:45:11;;;;;;;11.27;10.97;;;12.20;99.90;;;;;;6287001;22;20898;-75
2023/01/04 20:47:38;;;;;;;11.43;11.03;;;12.20;99.90;;;;;;6285758;22;20441;-76
2023/01/04 20:50:05;;;;;;;9.43;9.13;;;12.10;99.90;;;;;;6280594;22;20411;-77
2023/01/04 20:52:32;;;;;;;10.90;10.50;;;12.10;99.90;;;;;;6280905;22;20402;-77
2023/01/04 20:54:59;;;;;;;10.57;10.20;;;12.10;99.90;;;;;;6280492;22;20963;-77
2023/01/04 20:57:26;;;;;;;10.77;10.47;;;12.10;99.90;;;;;;6280240;22;20460;-77
2023/01/04 20:59:52;;;;;;;10.73;10.43;;;12.10;99.90;;;;;;6280856;22;20523;-77
2023/01/04 21:02:20;;;;;;;10.10;9.80;;;12.20;99.90;;;;;;6280598;22;20417;-77
2023/01/04 21:04:47;;;;;;;11.10;10.80;;;12.00;99.90;;;;;;6278091;22;20732;-76
2023/01/04 21:07:14;;;;;;;11.10;10.80;;;11.90;99.90;;;;;;6275001;22;20399;-76
2023/01/04 21:09:40;;;;;;;11.63;11.23;;;11.90;99.90;;;;;;6248434;22;20528;-75
2023/01/04 21:12:07;;;;;;;12.37;11.97;;;11.90;99.90;;;;;;6242566;23;20454;-75
2023/01/04 21:14:36;;;;;;;10.07;9.77;;;11.90;99.90;;;;;;6242663;23;20451;-76
2023/01/04 21:17:03;;;;;;;10.07;9.77;;;11.90;99.90;;;;;;6243335;23;20437;-76
2023/01/04 21:19:33;;;;;;;11.60;11.10;;;11.90;99.90;;;;;;6243538;23;20418;-76
2023/01/04 21:22:01;;;;;;;12.87;12.47;;;11.90;99.90;;;;;;6244116;23;20419;-76
2023/01/04 21:24:28;;;;;;;10.80;10.50;;;11.90;99.90;;;;;;6263259;23;20436;-75
2023/01/04 21:26:54;;;;;;;10.93;10.63;;;12.00;99.90;;;;;;6268070;23;20384;-75
2023/01/04 21:29:21;;;;;;;11.40;11.00;;;12.10;99.90;;;;;;6265169;23;20414;-75
2023/01/04 21:31:48;;;;;;;11.50;11.20;;;12.00;99.90;;;;;;6258053;23;20408;-74
2023/01/04 21:34:14;;;;;;;11.50;11.10;;;12.00;99.90;;;;;;6245455;23;20447;-74
2023/01/04 21:36:42;;;;;;;10.60;10.30;;;12.00;99.90;;;;;;6243134;23;20407;-74
2023/01/04 21:39:09;;;;;;;11.67;11.03;;;12.00;99.90;;;;;;6242673;23;20453;-74
2023/01/04 21:41:36;;;;;;;10.80;10.50;;;12.00;99.90;;;;;;6242689;23;20407;-75
2023/01/04 21:44:02;;;;;;;11.20;10.80;;;11.90;99.90;;;;;;6243084;23;20788;-74
2023/01/04 21:46:29;;;;;;;11.90;11.50;;;12.00;99.90;;;;;;6243200;23;20442;-74
2023/01/04 21:48:58;;;;;;;11.30;11.00;;;11.90;99.90;;;;;;6242440;23;20404;-74
2023/01/04 21:51:24;;;;;;;11.60;11.20;;;12.00;99.90;;;;;;6242436;23;20466;-75
2023/01/04 21:53:52;;;;;;;11.30;11.00;;;11.90;99.90;;;;;;6242229;23;20447;-76
2023/01/04 21:56:22;;;;;;;11.10;10.70;;;11.90;99.90;;;;;;6242573;23;20415;-74
2023/01/04 21:58:49;;;;;;;11.30;11.00;;;11.80;99.90;;;;;;6243668;23;20732;-75
2023/01/04 22:01:18;;;;;;;10.50;10.20;;;11.80;99.90;;;;;;6243339;23;20411;-77
2023/01/04 22:03:45;;;;;;;11.40;11.00;;;11.80;99.90;;;;;;6242735;23;20921;-77
2023/01/04 22:06:12;;;;;;;11.20;10.90;;;11.80;99.90;;;;;;6245389;23;20404;-75
2023/01/04 22:08:41;;;;;;;11.37;10.87;;;11.70;99.90;;;;;;6244265;22;20432;-75
2023/01/04 22:11:10;;;;;;;12.20;11.80;;;11.70;99.90;;;;;;6242945;23;20757;-74
2023/01/04 22:13:36;;;;;;;12.10;11.70;;;11.80;99.90;;;;;;6244286;23;20447;-75
2023/01/04 22:16:05;;;;;;;12.50;12.10;;;11.70;99.90;;;;;;6243601;23;20742;-74
2023/01/04 22:18:32;;;;;;;12.87;12.47;;;11.70;99.90;;;;;;6244825;23;20408;-75
2023/01/04 22:21:03;;;;;;;11.27;10.87;;;11.80;99.90;;;;;;6243490;23;20408;-75
2023/01/04 22:23:30;;;;;;;12.07;11.57;;;11.80;99.90;;;;;;6242792;23;20886;-74
2023/01/04 22:25:57;;;;;;;11.17;10.87;;;11.80;99.90;;;;;;6242827;23;20404;-74
2023/01/04 22:28:25;;;;;;;11.53;11.10;;;11.90;99.90;;;;;;6242957;23;20773;-75
2023/01/04 22:30:54;;;;;;;11.83;11.33;;;11.90;99.90;;;;;;6243440;23;20826;-74
2023/01/04 22:33:21;;;;;;;11.10;10.80;;;11.90;99.90;;;;;;6245261;23;20454;-77
2023/01/04 22:35:48;;;;;;;11.40;11.03;;;11.90;99.90;;;;;;6243675;23;20490;-75
2023/01/04 22:38:15;;;;;;;11.30;10.90;;;11.90;99.90;;;;;;6242140;23;20913;-74
2023/01/04 22:40:42;;;;;;;11.37;10.60;;;11.90;99.90;;;;;;6242733;23;20412;-76
2023/01/04 22:43:09;;;;;;;10.43;10.13;;;11.80;99.90;;;;;;6242496;23;20431;-74
2023/01/04 22:45:37;;;;;;;12.23;11.83;;;11.90;99.90;;;;;;6241913;23;20404;-74
2023/01/04 22:48:03;;;;;;;11.57;11.27;;;11.90;99.90;;;;;;6242119;23;20767;-75
2023/01/04 22:50:30;;;;;;;11.30;11.00;;;12.00;99.90;;;;;;6242240;23;20415;-75
2023/01/04 22:52:57;;;;;;;11.50;11.10;;;12.00;99.90;;;;;;6242216;23;20736;-75
2023/01/04 22:55:23;;;;;;;11.20;10.80;;;12.00;99.90;;;;;;6241709;23;20701;-75
2023/01/04 22:57:50;;;;;;;11.03;10.70;;;12.10;99.90;;;;;;6242035;23;20404;-75
2023/01/04 23:00:17;;;;;;;10.60;10.30;;;12.10;99.90;;;;;;6242205;23;20407;-75
2023/01/04 23:02:45;;;;;;;11.37;10.97;;;12.20;99.90;;;;;;6242197;23;20419;-76
2023/01/04 23:05:12;;;;;;;12.20;11.80;;;12.20;99.90;;;;;;6242322;23;20404;-75
2023/01/04 23:07:38;;;;;;;9.87;9.57;;;12.20;99.90;;;;;;6241379;23;20412;-75
